My Meet Scores
Jessica Manijak, Gym Kinetics Gymnastics - MyMeetScores.com
Top100 | Top Teams | Upcoming Meets | Completed Meets | Latest | Add Scores | Help| Support | Bookmark and Share

Jessica Manijak, Gym Kinetics Gymnastics
Personal Bests
LevelVault BarsBeamFloorAA
39.6759.300 9.6509.37537.275
49.2509.475 9.6508.82536.750
Meet Scores
Date Meet Team Session Level Division Vault Bars Beam Floor AA
2021-03-12 2021 Illinois Level 4 State Championships Gym Kinetics Gymnastics 7 4 Sr C 9.125 9 9.475 10 9.500 3 8.650 24T 36.750 8
2021-02-26 Kinetic Classic 2021 Gym Kinetics Gymnastics 09 4 Older 8.900 10T 9.275 8T 9.200 13T 8.675 22 36.050 13
2021-02-12 Harley Meet Women - Midwest Twisters Gym Kinetics Gymnastics S02 4 Sr A 9.200 5T 9.000 7 9.150 4T 8.800 12 36.150 8
2021-01-14 2021 Bravo Classic Gym Kinetics Gymnastics 5 4 Sr 9.250 8T 8.900 13 9.400 7 8.700 16 36.250 11
2020-12-18 Aspire Classic Gym Kinetics Gymnastics 1 4 Older 8.700 11T 8.350 13 9.300 7T 8.600 15T 34.950 12
2020-03-06 Illinois Level 4 State Championships Gym Kinetics Gymnastics 4 4 Jr B 9.125 9T 8.575 21T 9.650 4 8.550 26 35.900 19
2020-02-21 Kinetic Classic Gym Kinetics Gymnastics 06 4 Middle 8.450 48T 8.675 58 9.300 26T 8.825 53T 35.250 50
2020-01-17 2020 Bravo Classic Gym Kinetics Gymnastics 6B 4 Jr 8.850 10T 8.475 18 8.950 12 8.725 19 35.000 15
2020-01-10 Leenda's Island Adventure Gym Kinetics Gymnastics PG6 4 10 Year Ol 8.550 12T 8.300 16 9.500 2 8.350 20 34.700 15
2019-12-20 Aspire Classic - 2019 Gym Kinetics Gymnastics 7A 4 Middle 8.125 13T 8.200 18 9.300 5 7.450 21 33.075 18
2019-12-06 Ultimate Wish Classic Gym Kinetics Gymnastics 10 4 JR B 8.550 6 8.450 9 9.050 2 8.700 8T 34.750 6
2019-03-08 2019 Illinois Level 3 State Championship Gym Kinetics Gymnastics 3 3 Jr B 9.425 13T 9.300 16T 9.550 1 8.950 22 37.225 10
2019-02-23 Kinetic Classic 2019 Gym Kinetics Gymnastics 1 3 Middle 9.300 4T 8.800 34T 8.900 28T 9.000 21T 36.000 21
2019-02-08 Midwest Twisters Harley Meet Womens Gym Kinetics Gymnastics T07 3 9 yrs. 9.400 4T 8.250 16 9.325 4 9.125 7 36.100 9T
2019-01-18 2019 Bravo Classic Gym Kinetics Gymnastics 6B 3 Jr 9.375 6 8.850 15 9.450 2 9.325 6T 37.000 8
2019-01-11 St Jude Benefit Meet Gym Kinetics Gymnastics 2A 3 Jr C 9.150 10 8.850 10 9.425 3 9.375 5T 36.800 4
2018-12-14 2018 Aspire Classic Gym Kinetics Gymnastics 2 3 Sr A 9.175 10 8.725 15 9.650 1 9.150 7 36.700 5
2018-05-03 Illinois USA Gymnastics Level 3 State Championships Gym Kinetics Gymnastics 4 3 Youth A 9.675 5 8.950 18 9.300 5T 9.350 8T 37.275 9
2018-02-23 Kinetic Classic Gym Kinetics Gymnastics 5 3 Younger 9.300 11T 9.050 60T 9.200 28T 9.075 52 36.625 32T
2018-02-03 Midwest Games Gym Kinetics Gymnastics 5 3 JR B 9.125 5T 8.700 14 9.300 1T 8.950 12T 36.075 9
2018-01-19 2018 Bravo Classic Gym Kinetics Gymnastics 6B 3 Child 9.225 10T 8.875 11 8.700 7 8.000 18T 34.800 14
2017-12-15 2017 Aspire Classic Gym Kinetics Gymnastics 9A 3 Younger 9.275 4 8.675 13 8.825 5 8.550 15 35.325 8
Get your scores on
a t-shirt, pin, or hoodie